sensor_id;sensor_type;location;lat;lon;timestamp;P1;durP1;ratioP1;P2;durP2;ratioP2
52878;SDS011;38747;53.140;6.498;2023-05-19T00:01:38;8.40;;;2.80;;
52878;SDS011;38747;53.140;6.498;2023-05-19T00:04:07;7.78;;;3.00;;
52878;SDS011;38747;53.140;6.498;2023-05-19T00:06:36;9.13;;;2.83;;
52878;SDS011;38747;53.140;6.498;2023-05-19T00:09:05;9.18;;;2.60;;
52878;SDS011;38747;53.140;6.498;2023-05-19T00:11:33;9.73;;;3.20;;
52878;SDS011;38747;53.140;6.498;2023-05-19T00:14:00;9.45;;;3.00;;
52878;SDS011;38747;53.140;6.498;2023-05-19T00:16:27;10.60;;;3.03;;
52878;SDS011;38747;53.140;6.498;2023-05-19T00:18:54;11.88;;;3.10;;
52878;SDS011;38747;53.140;6.498;2023-05-19T00:21:21;7.75;;;2.92;;
52878;SDS011;38747;53.140;6.498;2023-05-19T00:23:47;8.70;;;3.10;;
52878;SDS011;38747;53.140;6.498;2023-05-19T00:26:13;9.15;;;3.00;;
52878;SDS011;38747;53.140;6.498;2023-05-19T00:28:39;12.27;;;3.20;;
52878;SDS011;38747;53.140;6.498;2023-05-19T00:31:05;8.25;;;3.35;;
52878;SDS011;38747;53.140;6.498;2023-05-19T00:33:30;10.50;;;3.23;;
52878;SDS011;38747;53.140;6.498;2023-05-19T00:35:57;10.02;;;3.28;;
52878;SDS011;38747;53.140;6.498;2023-05-19T00:38:24;10.00;;;3.00;;
52878;SDS011;38747;53.140;6.498;2023-05-19T00:40:50;14.68;;;3.58;;
52878;SDS011;38747;53.140;6.498;2023-05-19T00:43:15;10.13;;;3.43;;
52878;SDS011;38747;53.140;6.498;2023-05-19T00:45:41;12.63;;;3.95;;
52878;SDS011;38747;53.140;6.498;2023-05-19T00:48:07;9.40;;;3.70;;
52878;SDS011;38747;53.140;6.498;2023-05-19T00:50:32;11.38;;;3.72;;
52878;SDS011;38747;53.140;6.498;2023-05-19T00:52:58;11.23;;;3.67;;
52878;SDS011;38747;53.140;6.498;2023-05-19T00:55:25;9.95;;;3.90;;
52878;SDS011;38747;53.140;6.498;2023-05-19T00:57:54;12.60;;;3.90;;
52878;SDS011;38747;53.140;6.498;2023-05-19T01:00:20;9.25;;;3.78;;
52878;SDS011;38747;53.140;6.498;2023-05-19T01:02:47;9.80;;;3.40;;
52878;SDS011;38747;53.140;6.498;2023-05-19T01:05:14;8.85;;;3.30;;
52878;SDS011;38747;53.140;6.498;2023-05-19T01:07:40;11.05;;;3.65;;
52878;SDS011;38747;53.140;6.498;2023-05-19T01:10:06;8.90;;;3.00;;
52878;SDS011;38747;53.140;6.498;2023-05-19T01:12:33;13.25;;;3.35;;
52878;SDS011;38747;53.140;6.498;2023-05-19T01:14:59;10.15;;;3.75;;
52878;SDS011;38747;53.140;6.498;2023-05-19T01:17:27;12.95;;;3.38;;
52878;SDS011;38747;53.140;6.498;2023-05-19T01:20:23;9.20;;;3.42;;
52878;SDS011;38747;53.140;6.498;2023-05-19T01:28:47;11.07;;;3.40;;
52878;SDS011;38747;53.140;6.498;2023-05-19T01:31:24;9.63;;;3.28;;
52878;SDS011;38747;53.140;6.498;2023-05-19T01:33:52;9.32;;;2.83;;
52878;SDS011;38747;53.140;6.498;2023-05-19T01:36:18;10.20;;;2.70;;
52878;SDS011;38747;53.140;6.498;2023-05-19T01:38:46;8.75;;;3.00;;
52878;SDS011;38747;53.140;6.498;2023-05-19T01:41:15;10.85;;;3.25;;
52878;SDS011;38747;53.140;6.498;2023-05-19T01:43:44;14.32;;;3.40;;
52878;SDS011;38747;53.140;6.498;2023-05-19T01:46:10;15.48;;;3.65;;
52878;SDS011;38747;53.140;6.498;2023-05-19T01:48:36;10.57;;;3.50;;
52878;SDS011;38747;53.140;6.498;2023-05-19T01:51:02;12.02;;;3.53;;
52878;SDS011;38747;53.140;6.498;2023-05-19T01:53:28;11.80;;;3.30;;
52878;SDS011;38747;53.140;6.498;2023-05-19T01:55:54;10.67;;;3.53;;
52878;SDS011;38747;53.140;6.498;2023-05-19T02:01:12;8.90;;;2.95;;
52878;SDS011;38747;53.140;6.498;2023-05-19T02:11:36;9.25;;;2.70;;
52878;SDS011;38747;53.140;6.498;2023-05-19T02:14:08;7.18;;;2.38;;
52878;SDS011;38747;53.140;6.498;2023-05-19T02:16:38;8.75;;;2.10;;
52878;SDS011;38747;53.140;6.498;2023-05-19T02:19:18;5.80;;;2.20;;
52878;SDS011;38747;53.140;6.498;2023-05-19T02:21:56;11.50;;;2.50;;
52878;SDS011;38747;53.140;6.498;2023-05-19T02:24:21;8.95;;;2.20;;
52878;SDS011;38747;53.140;6.498;2023-05-19T02:26:48;6.30;;;2.10;;
52878;SDS011;38747;53.140;6.498;2023-05-19T02:29:14;7.43;;;2.70;;
52878;SDS011;38747;53.140;6.498;2023-05-19T02:31:40;9.73;;;2.60;;
52878;SDS011;38747;53.140;6.498;2023-05-19T02:34:05;7.07;;;2.80;;
52878;SDS011;38747;53.140;6.498;2023-05-19T02:36:32;10.63;;;3.13;;
52878;SDS011;38747;53.140;6.498;2023-05-19T02:38:59;9.43;;;2.95;;
52878;SDS011;38747;53.140;6.498;2023-05-19T02:41:26;7.40;;;2.70;;
52878;SDS011;38747;53.140;6.498;2023-05-19T02:43:52;8.23;;;2.60;;
52878;SDS011;38747;53.140;6.498;2023-05-19T02:46:17;10.68;;;3.20;;
52878;SDS011;38747;53.140;6.498;2023-05-19T02:48:43;8.93;;;2.97;;
52878;SDS011;38747;53.140;6.498;2023-05-19T02:51:08;6.38;;;2.30;;
52878;SDS011;38747;53.140;6.498;2023-05-19T02:53:34;6.67;;;2.40;;
52878;SDS011;38747;53.140;6.498;2023-05-19T02:56:00;7.70;;;2.15;;
52878;SDS011;38747;53.140;6.498;2023-05-19T02:58:26;7.63;;;2.37;;
52878;SDS011;38747;53.140;6.498;2023-05-19T03:00:51;7.57;;;2.47;;
52878;SDS011;38747;53.140;6.498;2023-05-19T03:03:17;9.23;;;2.53;;
52878;SDS011;38747;53.140;6.498;2023-05-19T03:05:43;7.55;;;2.30;;
52878;SDS011;38747;53.140;6.498;2023-05-19T03:08:09;7.88;;;2.42;;
52878;SDS011;38747;53.140;6.498;2023-05-19T03:10:35;9.90;;;2.97;;
52878;SDS011;38747;53.140;6.498;2023-05-19T03:13:01;9.73;;;2.85;;
52878;SDS011;38747;53.140;6.498;2023-05-19T03:15:26;13.67;;;2.70;;
52878;SDS011;38747;53.140;6.498;2023-05-19T03:17:52;12.50;;;3.13;;
52878;SDS011;38747;53.140;6.498;2023-05-19T03:20:17;9.23;;;2.72;;
52878;SDS011;38747;53.140;6.498;2023-05-19T03:22:43;11.13;;;2.73;;
52878;SDS011;38747;53.140;6.498;2023-05-19T03:25:10;15.82;;;3.20;;
52878;SDS011;38747;53.140;6.498;2023-05-19T03:27:35;13.02;;;3.50;;
52878;SDS011;38747;53.140;6.498;2023-05-19T03:30:01;10.30;;;2.67;;
52878;SDS011;38747;53.140;6.498;2023-05-19T03:32:26;13.27;;;3.40;;
52878;SDS011;38747;53.140;6.498;2023-05-19T03:34:52;12.32;;;3.30;;
52878;SDS011;38747;53.140;6.498;2023-05-19T03:37:18;9.53;;;3.30;;
52878;SDS011;38747;53.140;6.498;2023-05-19T03:39:43;13.70;;;3.60;;
52878;SDS011;38747;53.140;6.498;2023-05-19T03:42:09;11.73;;;3.23;;
52878;SDS011;38747;53.140;6.498;2023-05-19T03:44:34;8.85;;;3.50;;
52878;SDS011;38747;53.140;6.498;2023-05-19T03:47:00;7.90;;;3.30;;
52878;SDS011;38747;53.140;6.498;2023-05-19T03:49:26;14.50;;;3.70;;
52878;SDS011;38747;53.140;6.498;2023-05-19T03:51:51;13.73;;;3.40;;
52878;SDS011;38747;53.140;6.498;2023-05-19T03:54:17;11.50;;;3.37;;
52878;SDS011;38747;53.140;6.498;2023-05-19T03:56:43;12.40;;;3.33;;
52878;SDS011;38747;53.140;6.498;2023-05-19T03:59:08;12.90;;;3.30;;
52878;SDS011;38747;53.140;6.498;2023-05-19T04:01:36;10.63;;;3.10;;
52878;SDS011;38747;53.140;6.498;2023-05-19T04:04:02;12.17;;;3.40;;
52878;SDS011;38747;53.140;6.498;2023-05-19T04:06:28;12.18;;;3.30;;
52878;SDS011;38747;53.140;6.498;2023-05-19T04:08:53;10.03;;;3.43;;
52878;SDS011;38747;53.140;6.498;2023-05-19T04:11:19;13.43;;;3.50;;
52878;SDS011;38747;53.140;6.498;2023-05-19T04:13:45;10.05;;;3.40;;
52878;SDS011;38747;53.140;6.498;2023-05-19T04:16:11;9.70;;;3.30;;
52878;SDS011;38747;53.140;6.498;2023-05-19T04:18:36;9.90;;;3.00;;
52878;SDS011;38747;53.140;6.498;2023-05-19T04:21:02;9.20;;;3.30;;
52878;SDS011;38747;53.140;6.498;2023-05-19T04:23:28;9.32;;;3.33;;
52878;SDS011;38747;53.140;6.498;2023-05-19T04:25:53;10.27;;;3.30;;
52878;SDS011;38747;53.140;6.498;2023-05-19T04:28:21;8.48;;;3.28;;
52878;SDS011;38747;53.140;6.498;2023-05-19T04:30:47;8.38;;;3.33;;
52878;SDS011;38747;53.140;6.498;2023-05-19T04:33:14;12.95;;;3.95;;
52878;SDS011;38747;53.140;6.498;2023-05-19T04:35:40;9.10;;;3.33;;
52878;SDS011;38747;53.140;6.498;2023-05-19T04:38:07;10.75;;;3.47;;
52878;SDS011;38747;53.140;6.498;2023-05-19T04:40:34;9.07;;;3.50;;
52878;SDS011;38747;53.140;6.498;2023-05-19T04:42:59;13.88;;;3.53;;
52878;SDS011;38747;53.140;6.498;2023-05-19T04:45:26;9.40;;;3.03;;
52878;SDS011;38747;53.140;6.498;2023-05-19T04:47:52;15.40;;;3.60;;
52878;SDS011;38747;53.140;6.498;2023-05-19T04:50:21;9.95;;;3.45;;
52878;SDS011;38747;53.140;6.498;2023-05-19T04:52:48;12.43;;;3.90;;
52878;SDS011;38747;53.140;6.498;2023-05-19T04:55:13;11.43;;;3.40;;
52878;SDS011;38747;53.140;6.498;2023-05-19T04:57:39;8.52;;;3.63;;
52878;SDS011;38747;53.140;6.498;2023-05-19T05:00:06;10.88;;;3.30;;
52878;SDS011;38747;53.140;6.498;2023-05-19T05:02:36;10.45;;;3.67;;
52878;SDS011;38747;53.140;6.498;2023-05-19T05:05:01;12.70;;;3.60;;
52878;SDS011;38747;53.140;6.498;2023-05-19T05:07:28;11.65;;;3.67;;
52878;SDS011;38747;53.140;6.498;2023-05-19T05:09:53;9.30;;;3.47;;
52878;SDS011;38747;53.140;6.498;2023-05-19T05:12:19;12.90;;;3.65;;
52878;SDS011;38747;53.140;6.498;2023-05-19T05:14:45;9.50;;;3.40;;
52878;SDS011;38747;53.140;6.498;2023-05-19T05:17:11;10.57;;;3.33;;
52878;SDS011;38747;53.140;6.498;2023-05-19T05:19:37;12.68;;;4.47;;
52878;SDS011;38747;53.140;6.498;2023-05-19T05:22:04;8.45;;;3.80;;
52878;SDS011;38747;53.140;6.498;2023-05-19T05:24:30;11.00;;;3.55;;
52878;SDS011;38747;53.140;6.498;2023-05-19T05:26:57;11.63;;;4.18;;
52878;SDS011;38747;53.140;6.498;2023-05-19T05:29:23;9.77;;;3.80;;
52878;SDS011;38747;53.140;6.498;2023-05-19T05:31:49;14.35;;;3.58;;
52878;SDS011;38747;53.140;6.498;2023-05-19T05:34:15;12.75;;;4.28;;
52878;SDS011;38747;53.140;6.498;2023-05-19T05:36:40;9.97;;;3.80;;
52878;SDS011;38747;53.140;6.498;2023-05-19T05:39:06;11.95;;;3.72;;
52878;SDS011;38747;53.140;6.498;2023-05-19T05:41:32;12.57;;;4.00;;
52878;SDS011;38747;53.140;6.498;2023-05-19T05:44:02;11.65;;;3.80;;
52878;SDS011;38747;53.140;6.498;2023-05-19T05:46:28;12.80;;;3.92;;
52878;SDS011;38747;53.140;6.498;2023-05-19T05:48:54;11.68;;;3.58;;
52878;SDS011;38747;53.140;6.498;2023-05-19T05:51:23;10.98;;;3.95;;
52878;SDS011;38747;53.140;6.498;2023-05-19T05:53:53;10.27;;;3.70;;
52878;SDS011;38747;53.140;6.498;2023-05-19T05:56:20;12.27;;;3.85;;
52878;SDS011;38747;53.140;6.498;2023-05-19T05:58:46;14.35;;;4.63;;
52878;SDS011;38747;53.140;6.498;2023-05-19T06:01:11;11.95;;;4.10;;
52878;SDS011;38747;53.140;6.498;2023-05-19T06:03:38;9.33;;;3.70;;
52878;SDS011;38747;53.140;6.498;2023-05-19T06:06:05;10.05;;;3.97;;
52878;SDS011;38747;53.140;6.498;2023-05-19T06:08:30;9.55;;;3.60;;
52878;SDS011;38747;53.140;6.498;2023-05-19T06:10:56;10.03;;;3.83;;
52878;SDS011;38747;53.140;6.498;2023-05-19T06:13:22;10.10;;;3.65;;
52878;SDS011;38747;53.140;6.498;2023-05-19T06:15:49;11.00;;;3.72;;
52878;SDS011;38747;53.140;6.498;2023-05-19T06:18:15;12.63;;;3.93;;
52878;SDS011;38747;53.140;6.498;2023-05-19T06:20:41;10.77;;;4.30;;
52878;SDS011;38747;53.140;6.498;2023-05-19T06:23:07;13.63;;;3.80;;
52878;SDS011;38747;53.140;6.498;2023-05-19T06:25:32;10.03;;;3.80;;
52878;SDS011;38747;53.140;6.498;2023-05-19T06:27:58;11.35;;;3.97;;
52878;SDS011;38747;53.140;6.498;2023-05-19T06:30:24;13.20;;;4.07;;
52878;SDS011;38747;53.140;6.498;2023-05-19T06:32:50;9.13;;;3.70;;
52878;SDS011;38747;53.140;6.498;2023-05-19T06:35:15;9.07;;;4.27;;
52878;SDS011;38747;53.140;6.498;2023-05-19T06:37:41;11.15;;;3.85;;
52878;SDS011;38747;53.140;6.498;2023-05-19T06:40:06;8.83;;;3.80;;
52878;SDS011;38747;53.140;6.498;2023-05-19T06:42:32;9.02;;;3.33;;
52878;SDS011;38747;53.140;6.498;2023-05-19T06:44:58;7.63;;;3.17;;
52878;SDS011;38747;53.140;6.498;2023-05-19T06:47:24;10.20;;;3.38;;
52878;SDS011;38747;53.140;6.498;2023-05-19T06:49:49;10.27;;;3.40;;
52878;SDS011;38747;53.140;6.498;2023-05-19T06:52:19;11.52;;;3.38;;
52878;SDS011;38747;53.140;6.498;2023-05-19T06:54:45;9.57;;;3.08;;
52878;SDS011;38747;53.140;6.498;2023-05-19T06:57:11;11.13;;;3.60;;
52878;SDS011;38747;53.140;6.498;2023-05-19T06:59:37;10.05;;;3.55;;
52878;SDS011;38747;53.140;6.498;2023-05-19T07:02:05;10.93;;;3.67;;
52878;SDS011;38747;53.140;6.498;2023-05-19T07:04:31;10.37;;;3.50;;
52878;SDS011;38747;53.140;6.498;2023-05-19T07:06:57;10.45;;;3.50;;
52878;SDS011;38747;53.140;6.498;2023-05-19T07:09:22;8.23;;;3.00;;
52878;SDS011;38747;53.140;6.498;2023-05-19T07:11:48;9.38;;;3.10;;
52878;SDS011;38747;53.140;6.498;2023-05-19T07:14:14;10.52;;;3.75;;
52878;SDS011;38747;53.140;6.498;2023-05-19T07:16:40;11.83;;;3.40;;
52878;SDS011;38747;53.140;6.498;2023-05-19T07:19:05;10.13;;;3.53;;
52878;SDS011;38747;53.140;6.498;2023-05-19T07:21:31;9.20;;;3.17;;
52878;SDS011;38747;53.140;6.498;2023-05-19T07:23:56;9.73;;;3.33;;
52878;SDS011;38747;53.140;6.498;2023-05-19T07:26:22;11.10;;;4.20;;
52878;SDS011;38747;53.140;6.498;2023-05-19T07:28:48;13.83;;;3.20;;
52878;SDS011;38747;53.140;6.498;2023-05-19T07:31:13;9.55;;;3.28;;
52878;SDS011;38747;53.140;6.498;2023-05-19T07:33:39;9.60;;;3.07;;
52878;SDS011;38747;53.140;6.498;2023-05-19T07:36:05;9.63;;;2.70;;
52878;SDS011;38747;53.140;6.498;2023-05-19T07:38:31;8.43;;;2.53;;
52878;SDS011;38747;53.140;6.498;2023-05-19T07:40:59;8.88;;;2.75;;
52878;SDS011;38747;53.140;6.498;2023-05-19T07:43:25;8.38;;;2.30;;
52878;SDS011;38747;53.140;6.498;2023-05-19T07:45:51;7.95;;;2.50;;
52878;SDS011;38747;53.140;6.498;2023-05-19T07:48:17;8.55;;;2.65;;
52878;SDS011;38747;53.140;6.498;2023-05-19T07:50:46;9.13;;;2.50;;
52878;SDS011;38747;53.140;6.498;2023-05-19T07:53:12;6.03;;;1.90;;
52878;SDS011;38747;53.140;6.498;2023-05-19T07:55:38;8.18;;;2.20;;
52878;SDS011;38747;53.140;6.498;2023-05-19T07:58:04;6.30;;;2.10;;
52878;SDS011;38747;53.140;6.498;2023-05-19T08:00:29;6.60;;;2.30;;
52878;SDS011;38747;53.140;6.498;2023-05-19T08:02:55;8.13;;;2.80;;
52878;SDS011;38747;53.140;6.498;2023-05-19T08:05:21;9.13;;;2.25;;
52878;SDS011;38747;53.140;6.498;2023-05-19T08:07:47;9.88;;;2.28;;
52878;SDS011;38747;53.140;6.498;2023-05-19T08:10:13;10.00;;;2.50;;
52878;SDS011;38747;53.140;6.498;2023-05-19T08:12:39;5.33;;;1.73;;
52878;SDS011;38747;53.140;6.498;2023-05-19T08:15:04;8.52;;;2.08;;
52878;SDS011;38747;53.140;6.498;2023-05-19T08:17:31;5.60;;;1.70;;
52878;SDS011;38747;53.140;6.498;2023-05-19T08:19:57;9.63;;;2.00;;
52878;SDS011;38747;53.140;6.498;2023-05-19T08:22:24;8.32;;;2.05;;
52878;SDS011;38747;53.140;6.498;2023-05-19T08:24:50;9.00;;;1.93;;
52878;SDS011;38747;53.140;6.498;2023-05-19T08:27:15;6.72;;;1.85;;
52878;SDS011;38747;53.140;6.498;2023-05-19T08:29:41;6.13;;;1.73;;
52878;SDS011;38747;53.140;6.498;2023-05-19T08:32:07;7.38;;;2.10;;
52878;SDS011;38747;53.140;6.498;2023-05-19T08:34:33;7.80;;;2.30;;
52878;SDS011;38747;53.140;6.498;2023-05-19T08:36:58;9.40;;;2.22;;
52878;SDS011;38747;53.140;6.498;2023-05-19T08:39:24;9.30;;;1.97;;
52878;SDS011;38747;53.140;6.498;2023-05-19T08:41:53;8.23;;;2.30;;
52878;SDS011;38747;53.140;6.498;2023-05-19T08:44:19;7.10;;;2.15;;
52878;SDS011;38747;53.140;6.498;2023-05-19T08:46:48;9.75;;;2.00;;
52878;SDS011;38747;53.140;6.498;2023-05-19T08:49:17;6.03;;;1.92;;
52878;SDS011;38747;53.140;6.498;2023-05-19T08:55:03;6.17;;;1.70;;
52878;SDS011;38747;53.140;6.498;2023-05-19T08:57:35;10.65;;;2.10;;
52878;SDS011;38747;53.140;6.498;2023-05-19T09:00:02;6.28;;;1.80;;
52878;SDS011;38747;53.140;6.498;2023-05-19T09:02:36;8.45;;;2.55;;
52878;SDS011;38747;53.140;6.498;2023-05-19T09:05:03;8.00;;;2.75;;
52878;SDS011;38747;53.140;6.498;2023-05-19T09:07:33;6.67;;;1.80;;
52878;SDS011;38747;53.140;6.498;2023-05-19T09:10:01;5.90;;;2.22;;
52878;SDS011;38747;53.140;6.498;2023-05-19T09:12:28;8.68;;;2.60;;
52878;SDS011;38747;53.140;6.498;2023-05-19T09:14:54;6.65;;;1.90;;
52878;SDS011;38747;53.140;6.498;2023-05-19T09:17:20;7.77;;;2.07;;
52878;SDS011;38747;53.140;6.498;2023-05-19T09:19:47;6.85;;;1.90;;
52878;SDS011;38747;53.140;6.498;2023-05-19T09:22:16;7.68;;;2.25;;
52878;SDS011;38747;53.140;6.498;2023-05-19T09:24:43;6.78;;;1.80;;
52878;SDS011;38747;53.140;6.498;2023-05-19T09:27:08;6.33;;;1.67;;
52878;SDS011;38747;53.140;6.498;2023-05-19T09:29:37;7.22;;;1.92;;
52878;SDS011;38747;53.140;6.498;2023-05-19T09:32:03;7.13;;;1.55;;
52878;SDS011;38747;53.140;6.498;2023-05-19T09:34:30;7.35;;;1.92;;
52878;SDS011;38747;53.140;6.498;2023-05-19T09:36:55;7.47;;;2.00;;
52878;SDS011;38747;53.140;6.498;2023-05-19T09:39:24;12.52;;;1.98;;
52878;SDS011;38747;53.140;6.498;2023-05-19T09:41:50;8.68;;;1.75;;
52878;SDS011;38747;53.140;6.498;2023-05-19T09:44:23;5.55;;;1.90;;
52878;SDS011;38747;53.140;6.498;2023-05-19T09:46:54;7.37;;;1.90;;
52878;SDS011;38747;53.140;6.498;2023-05-19T09:49:21;9.02;;;2.58;;
52878;SDS011;38747;53.140;6.498;2023-05-19T09:51:48;6.82;;;1.85;;
52878;SDS011;38747;53.140;6.498;2023-05-19T09:54:21;5.95;;;2.08;;
52878;SDS011;38747;53.140;6.498;2023-05-19T09:56:55;5.18;;;1.77;;
52878;SDS011;38747;53.140;6.498;2023-05-19T09:59:25;8.70;;;1.90;;
52878;SDS011;38747;53.140;6.498;2023-05-19T10:01:53;7.70;;;2.15;;
52878;SDS011;38747;53.140;6.498;2023-05-19T10:04:21;8.63;;;2.00;;
52878;SDS011;38747;53.140;6.498;2023-05-19T10:06:48;7.38;;;1.67;;
52878;SDS011;38747;53.140;6.498;2023-05-19T10:09:19;5.25;;;1.58;;
52878;SDS011;38747;53.140;6.498;2023-05-19T10:11:51;4.70;;;1.50;;
52878;SDS011;38747;53.140;6.498;2023-05-19T10:14:19;6.40;;;1.60;;
52878;SDS011;38747;53.140;6.498;2023-05-19T10:16:52;11.00;;;2.00;;
52878;SDS011;38747;53.140;6.498;2023-05-19T10:19:20;8.98;;;2.10;;
52878;SDS011;38747;53.140;6.498;2023-05-19T10:21:47;6.95;;;1.90;;
52878;SDS011;38747;53.140;6.498;2023-05-19T10:24:13;6.17;;;1.73;;
52878;SDS011;38747;53.140;6.498;2023-05-19T10:26:39;7.90;;;1.80;;
52878;SDS011;38747;53.140;6.498;2023-05-19T10:29:16;7.10;;;2.00;;
52878;SDS011;38747;53.140;6.498;2023-05-19T10:31:45;6.35;;;1.90;;
52878;SDS011;38747;53.140;6.498;2023-05-19T10:36:52;7.07;;;1.55;;
52878;SDS011;38747;53.140;6.498;2023-05-19T10:39:28;6.40;;;1.65;;
52878;SDS011;38747;53.140;6.498;2023-05-19T10:47:31;6.30;;;1.87;;
52878;SDS011;38747;53.140;6.498;2023-05-19T10:50:03;6.07;;;1.63;;
52878;SDS011;38747;53.140;6.498;2023-05-19T10:52:30;7.40;;;1.88;;
52878;SDS011;38747;53.140;6.498;2023-05-19T10:55:01;6.00;;;1.50;;
52878;SDS011;38747;53.140;6.498;2023-05-19T10:57:28;4.97;;;1.60;;
52878;SDS011;38747;53.140;6.498;2023-05-19T10:59:57;7.53;;;1.60;;
52878;SDS011;38747;53.140;6.498;2023-05-19T11:02:46;4.88;;;1.58;;
52878;SDS011;38747;53.140;6.498;2023-05-19T11:05:13;3.90;;;1.27;;
52878;SDS011;38747;53.140;6.498;2023-05-19T11:07:53;6.13;;;1.55;;
52878;SDS011;38747;53.140;6.498;2023-05-19T11:10:23;5.33;;;1.40;;
52878;SDS011;38747;53.140;6.498;2023-05-19T11:12:49;6.03;;;1.60;;
52878;SDS011;38747;53.140;6.498;2023-05-19T11:15:16;6.45;;;1.50;;
52878;SDS011;38747;53.140;6.498;2023-05-19T11:17:44;6.40;;;1.60;;
52878;SDS011;38747;53.140;6.498;2023-05-19T11:20:22;5.53;;;1.50;;
52878;SDS011;38747;53.140;6.498;2023-05-19T11:23:04;3.97;;;1.38;;
52878;SDS011;38747;53.140;6.498;2023-05-19T11:25:41;5.68;;;1.42;;
52878;SDS011;38747;53.140;6.498;2023-05-19T11:28:18;6.18;;;1.50;;
52878;SDS011;38747;53.140;6.498;2023-05-19T11:30:49;6.72;;;1.80;;
52878;SDS011;38747;53.140;6.498;2023-05-19T11:33:18;6.40;;;1.90;;
52878;SDS011;38747;53.140;6.498;2023-05-19T11:35:47;9.02;;;1.90;;
52878;SDS011;38747;53.140;6.498;2023-05-19T11:38:15;7.03;;;1.75;;
52878;SDS011;38747;53.140;6.498;2023-05-19T11:40:46;6.85;;;1.63;;
52878;SDS011;38747;53.140;6.498;2023-05-19T11:43:13;6.82;;;1.85;;
52878;SDS011;38747;53.140;6.498;2023-05-19T11:45:40;6.87;;;1.97;;
52878;SDS011;38747;53.140;6.498;2023-05-19T11:48:09;5.22;;;1.50;;
52878;SDS011;38747;53.140;6.498;2023-05-19T11:50:36;6.50;;;1.60;;
52878;SDS011;38747;53.140;6.498;2023-05-19T11:53:04;4.93;;;1.70;;
52878;SDS011;38747;53.140;6.498;2023-05-19T11:55:30;6.87;;;1.87;;
52878;SDS011;38747;53.140;6.498;2023-05-19T11:57:56;4.93;;;1.60;;
52878;SDS011;38747;53.140;6.498;2023-05-19T12:00:26;8.55;;;2.10;;
52878;SDS011;38747;53.140;6.498;2023-05-19T12:02:52;6.20;;;1.73;;
52878;SDS011;38747;53.140;6.498;2023-05-19T12:05:24;6.77;;;2.10;;
52878;SDS011;38747;53.140;6.498;2023-05-19T12:07:50;8.40;;;1.88;;
52878;SDS011;38747;53.140;6.498;2023-05-19T12:10:23;5.80;;;1.70;;
52878;SDS011;38747;53.140;6.498;2023-05-19T12:12:53;6.57;;;2.22;;
52878;SDS011;38747;53.140;6.498;2023-05-19T12:15:19;5.93;;;1.70;;
52878;SDS011;38747;53.140;6.498;2023-05-19T12:17:49;6.55;;;1.90;;
52878;SDS011;38747;53.140;6.498;2023-05-19T12:20:23;8.00;;;2.10;;
52878;SDS011;38747;53.140;6.498;2023-05-19T12:22:49;7.35;;;1.83;;
52878;SDS011;38747;53.140;6.498;2023-05-19T12:25:15;5.53;;;1.80;;
52878;SDS011;38747;53.140;6.498;2023-05-19T12:27:42;6.97;;;2.10;;
52878;SDS011;38747;53.140;6.498;2023-05-19T12:30:08;6.68;;;1.90;;
52878;SDS011;38747;53.140;6.498;2023-05-19T12:32:35;5.97;;;1.83;;
52878;SDS011;38747;53.140;6.498;2023-05-19T12:35:02;7.20;;;2.00;;
52878;SDS011;38747;53.140;6.498;2023-05-19T12:37:29;6.40;;;2.10;;
52878;SDS011;38747;53.140;6.498;2023-05-19T12:39:56;6.47;;;2.17;;
52878;SDS011;38747;53.140;6.498;2023-05-19T12:42:22;7.15;;;2.10;;
52878;SDS011;38747;53.140;6.498;2023-05-19T12:44:49;6.20;;;2.22;;
52878;SDS011;38747;53.140;6.498;2023-05-19T12:47:17;7.23;;;2.07;;
52878;SDS011;38747;53.140;6.498;2023-05-19T12:52:28;6.53;;;1.92;;
52878;SDS011;38747;53.140;6.498;2023-05-19T12:57:24;6.90;;;2.00;;
52878;SDS011;38747;53.140;6.498;2023-05-19T12:59:51;6.43;;;1.80;;
52878;SDS011;38747;53.140;6.498;2023-05-19T13:02:17;7.72;;;2.33;;
52878;SDS011;38747;53.140;6.498;2023-05-19T13:04:43;7.05;;;2.28;;
52878;SDS011;38747;53.140;6.498;2023-05-19T13:07:08;6.93;;;2.17;;
52878;SDS011;38747;53.140;6.498;2023-05-19T13:09:37;6.03;;;2.45;;
52878;SDS011;38747;53.140;6.498;2023-05-19T13:12:03;5.47;;;2.10;;
52878;SDS011;38747;53.140;6.498;2023-05-19T13:14:29;7.23;;;2.20;;
52878;SDS011;38747;53.140;6.498;2023-05-19T13:16:55;5.88;;;2.33;;
52878;SDS011;38747;53.140;6.498;2023-05-19T13:19:20;8.57;;;2.40;;
52878;SDS011;38747;53.140;6.498;2023-05-19T13:21:46;7.90;;;2.53;;
52878;SDS011;38747;53.140;6.498;2023-05-19T13:24:12;11.37;;;2.30;;
52878;SDS011;38747;53.140;6.498;2023-05-19T13:26:38;6.78;;;2.08;;
52878;SDS011;38747;53.140;6.498;2023-05-19T13:29:05;6.75;;;2.22;;
52878;SDS011;38747;53.140;6.498;2023-05-19T13:31:31;7.07;;;2.00;;
52878;SDS011;38747;53.140;6.498;2023-05-19T13:33:56;5.72;;;2.20;;
52878;SDS011;38747;53.140;6.498;2023-05-19T13:36:22;5.97;;;1.97;;
52878;SDS011;38747;53.140;6.498;2023-05-19T13:38:49;6.43;;;2.10;;
52878;SDS011;38747;53.140;6.498;2023-05-19T13:41:14;6.50;;;2.30;;
52878;SDS011;38747;53.140;6.498;2023-05-19T13:43:40;6.53;;;2.10;;
52878;SDS011;38747;53.140;6.498;2023-05-19T13:46:06;7.77;;;2.13;;
52878;SDS011;38747;53.140;6.498;2023-05-19T13:48:31;6.13;;;2.20;;
52878;SDS011;38747;53.140;6.498;2023-05-19T13:50:57;6.10;;;1.93;;
52878;SDS011;38747;53.140;6.498;2023-05-19T13:53:23;5.70;;;2.15;;
52878;SDS011;38747;53.140;6.498;2023-05-19T13:55:50;6.55;;;2.13;;
52878;SDS011;38747;53.140;6.498;2023-05-19T13:58:19;9.13;;;2.40;;
52878;SDS011;38747;53.140;6.498;2023-05-19T14:00:44;7.67;;;2.07;;
52878;SDS011;38747;53.140;6.498;2023-05-19T14:03:10;7.57;;;2.27;;
52878;SDS011;38747;53.140;6.498;2023-05-19T14:05:35;10.02;;;2.90;;
52878;SDS011;38747;53.140;6.498;2023-05-19T14:08:01;6.97;;;2.20;;
52878;SDS011;38747;53.140;6.498;2023-05-19T14:10:27;7.35;;;2.58;;
52878;SDS011;38747;53.140;6.498;2023-05-19T14:12:54;9.00;;;2.60;;
52878;SDS011;38747;53.140;6.498;2023-05-19T14:15:23;6.40;;;2.20;;
52878;SDS011;38747;53.140;6.498;2023-05-19T14:17:50;6.78;;;2.38;;
52878;SDS011;38747;53.140;6.498;2023-05-19T14:20:16;8.70;;;2.53;;
52878;SDS011;38747;53.140;6.498;2023-05-19T14:22:42;5.80;;;1.98;;
52878;SDS011;38747;53.140;6.498;2023-05-19T14:25:08;7.77;;;2.40;;
52878;SDS011;38747;53.140;6.498;2023-05-19T14:27:34;6.60;;;2.40;;
52878;SDS011;38747;53.140;6.498;2023-05-19T14:29:59;7.53;;;2.57;;
52878;SDS011;38747;53.140;6.498;2023-05-19T14:32:25;7.60;;;2.70;;
52878;SDS011;38747;53.140;6.498;2023-05-19T14:34:50;6.63;;;2.55;;
52878;SDS011;38747;53.140;6.498;2023-05-19T14:37:17;8.75;;;2.55;;
52878;SDS011;38747;53.140;6.498;2023-05-19T14:39:43;7.07;;;2.97;;
52878;SDS011;38747;53.140;6.498;2023-05-19T14:42:09;12.55;;;3.05;;
52878;SDS011;38747;53.140;6.498;2023-05-19T14:44:34;9.13;;;3.08;;
52878;SDS011;38747;53.140;6.498;2023-05-19T14:47:01;7.53;;;2.60;;
52878;SDS011;38747;53.140;6.498;2023-05-19T14:49:28;9.67;;;2.63;;
52878;SDS011;38747;53.140;6.498;2023-05-19T14:51:54;8.32;;;2.92;;
52878;SDS011;38747;53.140;6.498;2023-05-19T14:54:20;8.80;;;2.83;;
52878;SDS011;38747;53.140;6.498;2023-05-19T14:56:45;8.23;;;2.67;;
52878;SDS011;38747;53.140;6.498;2023-05-19T14:59:11;8.10;;;2.95;;
52878;SDS011;38747;53.140;6.498;2023-05-19T15:01:37;9.63;;;2.77;;
52878;SDS011;38747;53.140;6.498;2023-05-19T15:04:02;8.57;;;3.03;;
52878;SDS011;38747;53.140;6.498;2023-05-19T15:06:28;8.97;;;2.80;;
52878;SDS011;38747;53.140;6.498;2023-05-19T15:08:53;8.65;;;2.72;;
52878;SDS011;38747;53.140;6.498;2023-05-19T15:11:19;8.17;;;2.97;;
52878;SDS011;38747;53.140;6.498;2023-05-19T15:13:47;8.77;;;2.70;;
52878;SDS011;38747;53.140;6.498;2023-05-19T15:16:13;7.65;;;2.80;;